< < Back
Terminal Aerodrome Forecast


Current Version              Previous Versions:   1  2  3  4  5  6  7  8  9  

Terminal Aerodrome Forecast

832
FTUS42 KCAE 241600 AAA
TAFCAE
TAF AMD
KCAE 241620Z 2416/2512 VRB04KT P6SM SCT200=

Latest METAR

644
SAUS80 KWBC 250400
MTRCAE
METAR KCAE 250356Z 00000KT 10SM CLR 09/07 A3002 RMK AO2 SLP163
T00940072


USA.gov is the U.S. government's official web portal to all federal, state and local government web resources and services.